createdAt,value
2018-02-12T00:00:07.176Z,4.98
2018-02-12T00:02:34.675Z,4.97
2018-02-12T00:05:02.205Z,4.96
2018-02-12T00:07:29.698Z,4.95
2018-02-12T00:09:57.182Z,4.95
2018-02-12T00:12:24.691Z,4.95
2018-02-12T00:14:52.197Z,4.95
2018-02-12T00:17:19.691Z,4.94
2018-02-12T00:19:47.170Z,4.92
2018-02-12T00:22:14.671Z,4.91
2018-02-12T00:24:42.228Z,4.91
2018-02-12T00:27:09.732Z,4.92
2018-02-12T00:29:37.222Z,4.93
2018-02-12T00:32:04.724Z,4.92
2018-02-12T00:34:32.198Z,4.92
2018-02-12T00:36:59.679Z,4.91
2018-02-12T00:39:27.284Z,4.90
2018-02-12T00:41:54.790Z,4.89
2018-02-12T00:44:22.267Z,4.89
2018-02-12T00:46:49.749Z,4.87
2018-02-12T00:49:17.227Z,4.88
2018-02-12T00:51:44.733Z,4.85
2018-02-12T00:54:12.225Z,4.81
2018-02-12T00:56:39.707Z,4.64
2018-02-12T00:59:07.211Z,4.46
2018-02-12T01:01:34.710Z,4.32
2018-02-12T01:04:02.202Z,4.19
2018-02-12T01:06:29.679Z,4.10
2018-02-12T01:08:57.214Z,4.01
2018-02-12T01:11:24.686Z,3.94
2018-02-12T01:13:52.177Z,3.87
2018-02-12T01:16:19.675Z,3.80
2018-02-12T01:18:47.167Z,3.75
2018-02-12T01:21:14.639Z,3.72
2018-02-12T01:23:42.123Z,3.69
2018-02-12T01:26:09.643Z,3.67
2018-02-12T01:28:37.135Z,3.67
2018-02-12T01:31:04.693Z,3.69
2018-02-12T01:33:32.188Z,3.72
2018-02-12T01:35:59.740Z,3.75
2018-02-12T01:38:27.219Z,3.79
2018-02-12T01:40:54.734Z,3.84
2018-02-12T01:43:22.281Z,3.85
2018-02-12T01:45:49.795Z,3.81
2018-02-12T01:48:17.356Z,3.79
2018-02-12T01:50:44.846Z,3.77
2018-02-12T01:53:12.338Z,3.78
2018-02-12T01:55:39.844Z,3.79
2018-02-12T01:58:07.350Z,3.78
2018-02-12T02:00:34.862Z,3.81
2018-02-12T02:03:02.367Z,3.83
2018-02-12T02:05:29.964Z,3.84
2018-02-12T02:07:57.463Z,3.86
2018-02-12T02:10:25.079Z,3.86
2018-02-12T02:12:52.655Z,3.88
2018-02-12T02:15:20.154Z,3.90
2018-02-12T02:17:47.666Z,3.93
2018-02-12T02:20:15.292Z,3.95
2018-02-12T02:22:42.854Z,3.97
2018-02-12T02:25:10.346Z,4.00
2018-02-12T02:27:37.835Z,4.02
2018-02-12T02:30:05.324Z,4.03
2018-02-12T02:32:32.862Z,4.04
2018-02-12T02:35:00.347Z,4.05
2018-02-12T02:37:27.823Z,4.07
2018-02-12T02:39:55.303Z,4.11
2018-02-12T02:42:22.796Z,4.15
2018-02-12T02:44:50.298Z,4.19
2018-02-12T02:47:17.792Z,4.21
2018-02-12T02:49:45.287Z,4.24
2018-02-12T02:52:12.796Z,4.26
2018-02-12T02:54:40.278Z,4.28
2018-02-12T02:57:07.754Z,4.29
2018-02-12T02:59:35.231Z,4.32
2018-02-12T03:02:02.762Z,4.34
2018-02-12T03:04:30.241Z,4.34
2018-02-12T03:06:57.730Z,4.32
2018-02-12T03:09:25.388Z,4.29
2018-02-12T03:11:52.915Z,4.30
2018-02-12T03:14:20.406Z,4.30
2018-02-12T03:16:47.890Z,4.30
2018-02-12T03:19:15.377Z,4.30
2018-02-12T03:21:42.870Z,4.32
2018-02-12T03:24:10.336Z,4.34
2018-02-12T03:26:37.848Z,4.39
2018-02-12T03:29:05.353Z,4.40
2018-02-12T03:31:32.865Z,4.41
2018-02-12T03:34:01.055Z,4.41
2018-02-12T03:36:28.552Z,4.45
2018-02-12T03:38:56.046Z,4.47
2018-02-12T03:41:23.560Z,4.50
2018-02-12T03:43:51.053Z,4.51
2018-02-12T03:46:18.550Z,4.52
2018-02-12T03:48:46.079Z,4.52
2018-02-12T03:51:13.560Z,4.50
2018-02-12T03:53:41.058Z,4.51
2018-02-12T03:56:08.566Z,4.50
2018-02-12T03:58:36.058Z,4.52
2018-02-12T04:01:03.579Z,4.54
2018-02-12T04:03:31.072Z,4.55
2018-02-12T04:05:58.559Z,4.58
2018-02-12T04:08:26.047Z,4.59
2018-02-12T04:10:53.539Z,4.59
2018-02-12T04:13:21.003Z,4.59
2018-02-12T04:15:48.493Z,4.59
2018-02-12T04:18:15.968Z,4.60
2018-02-12T04:20:43.471Z,4.63
2018-02-12T04:23:10.942Z,4.65
2018-02-12T04:25:38.462Z,4.65
2018-02-12T04:28:05.951Z,4.65
2018-02-12T04:30:33.439Z,4.66
2018-02-12T04:33:00.936Z,4.66
2018-02-12T04:35:28.423Z,4.67
2018-02-12T04:37:55.911Z,4.66
2018-02-12T04:40:23.409Z,4.66
2018-02-12T04:42:50.911Z,4.65
2018-02-12T04:45:18.420Z,4.66
2018-02-12T04:47:45.926Z,4.69
2018-02-12T04:50:13.428Z,4.69
2018-02-12T04:52:40.902Z,4.69
2018-02-12T04:55:08.444Z,4.68
2018-02-12T04:57:35.927Z,4.67
2018-02-12T05:00:03.468Z,4.67
2018-02-12T05:02:30.962Z,4.67
2018-02-12T05:04:58.483Z,4.67
2018-02-12T05:07:25.968Z,4.67
2018-02-12T05:09:53.470Z,4.68
2018-02-12T05:12:21.012Z,4.72
2018-02-12T05:14:48.518Z,4.76
2018-02-12T05:17:15.990Z,4.78
2018-02-12T05:19:43.474Z,4.80
2018-02-12T05:22:10.957Z,4.80
2018-02-12T05:24:38.446Z,4.80
2018-02-12T05:27:05.959Z,4.80
2018-02-12T05:29:33.452Z,4.79
2018-02-12T05:32:00.940Z,4.78
2018-02-12T05:34:28.419Z,4.76
2018-02-12T05:36:55.915Z,4.75
2018-02-12T05:39:23.416Z,4.74
2018-02-12T05:41:50.891Z,4.73
2018-02-12T05:44:18.382Z,4.72
2018-02-12T05:46:45.868Z,4.71
2018-02-12T05:49:13.364Z,4.68
2018-02-12T05:51:40.863Z,4.66
2018-02-12T05:54:08.357Z,4.67
2018-02-12T05:56:35.850Z,4.68
2018-02-12T05:59:03.346Z,4.69
2018-02-12T06:01:30.862Z,4.71
2018-02-12T06:03:58.379Z,4.71
2018-02-12T06:06:25.875Z,4.72
2018-02-12T06:08:53.369Z,4.73
2018-02-12T06:11:20.852Z,4.76
2018-02-12T06:13:48.371Z,4.77
2018-02-12T06:16:15.872Z,4.79
2018-02-12T06:18:43.398Z,4.81
2018-02-12T06:21:10.867Z,4.83
2018-02-12T06:23:38.351Z,4.87
2018-02-12T06:26:05.836Z,4.89
2018-02-12T06:28:33.315Z,4.90
2018-02-12T06:31:00.832Z,4.89
2018-02-12T06:33:28.462Z,4.89
2018-02-12T06:35:55.935Z,4.88
2018-02-12T06:38:23.418Z,4.87
2018-02-12T06:40:50.904Z,4.89
2018-02-12T06:43:18.401Z,4.91
2018-02-12T06:45:45.894Z,4.92
2018-02-12T06:48:13.371Z,4.93
2018-02-12T06:50:40.878Z,4.93
2018-02-12T06:53:08.358Z,4.92
2018-02-12T06:55:35.846Z,4.91
2018-02-12T06:58:03.339Z,4.88
2018-02-12T07:00:30.848Z,4.86
2018-02-12T07:02:58.347Z,4.84
2018-02-12T07:05:25.887Z,4.82
2018-02-12T07:07:53.381Z,4.79
2018-02-12T07:10:20.871Z,4.75
2018-02-12T07:12:48.408Z,4.72
2018-02-12T07:15:15.939Z,4.69
2018-02-12T07:17:43.440Z,4.67
2018-02-12T07:20:10.922Z,4.65
2018-02-12T07:22:38.424Z,4.63
2018-02-12T07:25:05.926Z,4.61
2018-02-12T07:27:33.411Z,4.61
2018-02-12T07:30:00.886Z,4.60
2018-02-12T07:32:28.386Z,4.59
2018-02-12T07:34:55.876Z,4.57
2018-02-12T07:37:23.392Z,4.58
2018-02-12T07:39:50.908Z,4.59
2018-02-12T07:42:18.396Z,4.59
2018-02-12T07:44:45.926Z,4.58
2018-02-12T07:47:13.430Z,4.58
2018-02-12T07:49:40.939Z,4.57
2018-02-12T07:52:08.444Z,4.58
2018-02-12T07:54:35.970Z,4.58
2018-02-12T07:57:03.479Z,4.58
2018-02-12T07:59:30.960Z,4.58
2018-02-12T08:01:58.478Z,4.58
2018-02-12T08:04:26.187Z,4.61
2018-02-12T08:06:53.691Z,4.63
2018-02-12T08:09:21.190Z,4.64
2018-02-12T08:11:48.703Z,4.63
2018-02-12T08:14:16.177Z,4.63
2018-02-12T08:16:43.667Z,4.62
2018-02-12T08:19:11.182Z,4.61
2018-02-12T08:24:49.449Z,4.61
2018-02-12T08:27:16.985Z,4.62
2018-02-12T08:29:44.490Z,4.63
2018-02-12T08:32:11.996Z,4.64
2018-02-12T08:34:39.499Z,4.65
2018-02-12T08:37:06.998Z,4.66
2018-02-12T08:39:34.503Z,4.66
2018-02-12T08:42:01.999Z,4.66
2018-02-12T08:44:29.521Z,4.66
2018-02-12T08:46:57.030Z,4.68
2018-02-12T08:49:24.559Z,4.70
2018-02-12T08:51:52.088Z,4.73
2018-02-12T08:54:19.586Z,4.77
2018-02-12T08:56:47.078Z,4.84
2018-02-12T08:59:14.631Z,4.91
2018-02-12T09:01:42.189Z,4.99
2018-02-12T09:04:09.692Z,5.11
2018-02-12T09:06:37.191Z,5.22
2018-02-12T09:09:04.691Z,5.39
2018-02-12T09:11:32.180Z,5.52
2018-02-12T09:13:59.671Z,5.55
2018-02-12T09:16:27.159Z,5.54
2018-02-12T09:18:54.662Z,5.50
2018-02-12T09:21:22.185Z,5.47
2018-02-12T09:23:49.679Z,5.42
2018-02-12T09:26:17.195Z,5.43
2018-02-12T09:28:44.768Z,5.44
2018-02-12T09:31:12.295Z,5.47
2018-02-12T09:33:39.828Z,5.49
2018-02-12T09:36:07.327Z,5.53
2018-02-12T09:38:34.881Z,5.58
2018-02-12T09:41:02.359Z,5.61
2018-02-12T09:43:29.924Z,5.60
2018-02-12T09:45:57.652Z,5.59
2018-02-12T09:48:25.151Z,5.55
2018-02-12T09:50:52.776Z,5.48
2018-02-12T09:53:20.267Z,5.45
2018-02-12T09:55:47.809Z,5.37
2018-02-12T09:58:15.333Z,5.13
2018-02-12T10:00:42.836Z,5.03
2018-02-12T10:03:10.368Z,4.77
2018-02-12T10:05:37.863Z,4.68
2018-02-12T10:08:05.354Z,4.56
2018-02-12T10:10:32.843Z,4.62
2018-02-12T10:13:00.363Z,4.67
2018-02-12T10:15:27.895Z,4.71
2018-02-12T10:17:55.400Z,4.76
2018-02-12T10:20:22.862Z,4.80
2018-02-12T10:22:50.494Z,4.82
2018-02-12T10:25:18.028Z,4.81
2018-02-12T10:27:45.576Z,4.81
2018-02-12T10:30:13.080Z,4.82
2018-02-12T10:32:40.584Z,4.84
2018-02-12T10:35:08.078Z,4.86
2018-02-12T10:37:35.623Z,4.91
2018-02-12T10:40:03.149Z,4.99
2018-02-12T10:42:30.630Z,5.09
2018-02-12T10:44:59.057Z,5.20
2018-02-12T10:47:26.534Z,5.29
2018-02-12T10:49:54.032Z,5.37
2018-02-12T10:52:21.547Z,5.43
2018-02-12T10:54:49.030Z,5.48
2018-02-12T10:57:16.514Z,5.53
2018-02-12T10:59:44.014Z,5.57
2018-02-12T11:02:11.503Z,5.61
2018-02-12T11:04:39.051Z,5.68
2018-02-12T11:07:06.561Z,5.76
2018-02-12T11:09:34.058Z,5.83
2018-02-12T11:12:01.565Z,5.88
2018-02-12T11:14:29.075Z,5.92
2018-02-12T11:16:56.550Z,5.96
2018-02-12T11:19:24.051Z,6.01
2018-02-12T11:21:51.573Z,6.06
2018-02-12T11:24:19.076Z,6.11
2018-02-12T11:26:46.576Z,6.18
2018-02-12T11:29:14.085Z,6.24
2018-02-12T11:31:41.588Z,6.24
2018-02-12T11:34:09.124Z,6.24
2018-02-12T11:36:36.622Z,6.25
2018-02-12T11:39:04.120Z,6.30
2018-02-12T11:41:31.628Z,6.37
2018-02-12T11:43:59.134Z,6.39
2018-02-12T11:46:26.620Z,6.45
2018-02-12T11:48:54.155Z,6.54
2018-02-12T11:51:21.771Z,6.67
2018-02-12T11:53:49.254Z,6.74
2018-02-12T11:56:16.884Z,6.83
2018-02-12T11:58:44.386Z,6.94
2018-02-12T12:01:11.878Z,7.05
2018-02-12T12:03:39.675Z,7.10
2018-02-12T12:06:07.157Z,7.12
2018-02-12T12:08:34.663Z,7.09
2018-02-12T12:11:02.175Z,7.03
2018-02-12T12:13:29.662Z,6.93
2018-02-12T12:15:57.209Z,6.90
2018-02-12T12:18:24.695Z,6.88
2018-02-12T12:20:52.191Z,6.94
2018-02-12T12:23:19.710Z,7.05
2018-02-12T12:25:47.292Z,7.21
2018-02-12T12:28:14.783Z,7.31
2018-02-12T12:30:42.276Z,7.33
2018-02-12T12:33:09.893Z,7.33
2018-02-12T12:35:37.374Z,7.28
2018-02-12T12:38:04.890Z,7.23
2018-02-12T12:40:32.394Z,7.09
2018-02-12T12:42:59.878Z,6.82
2018-02-12T12:45:27.470Z,6.72
2018-02-12T12:47:54.954Z,6.56
2018-02-12T12:50:22.459Z,6.56
2018-02-12T12:52:49.942Z,6.62
2018-02-12T12:55:17.460Z,6.63
2018-02-12T12:57:44.995Z,6.74
2018-02-12T13:00:12.494Z,6.90
2018-02-12T13:02:40.102Z,7.04
2018-02-12T13:05:07.610Z,7.13
2018-02-12T13:07:35.098Z,7.23
2018-02-12T13:10:02.590Z,7.30
2018-02-12T13:12:30.102Z,7.40
2018-02-12T13:14:57.587Z,7.53
2018-02-12T13:17:25.081Z,7.70
2018-02-12T13:19:52.567Z,7.87
2018-02-12T13:22:20.060Z,8.00
2018-02-12T13:24:47.558Z,8.15
2018-02-12T13:27:15.059Z,8.28
2018-02-12T13:29:42.538Z,8.34
2018-02-12T13:32:10.054Z,8.43
2018-02-12T13:34:37.530Z,8.36
2018-02-12T13:37:05.014Z,8.33
2018-02-12T13:39:32.522Z,8.42
2018-02-12T13:42:00.095Z,8.40
2018-02-12T13:44:27.591Z,8.23
2018-02-12T13:46:55.109Z,8.20
2018-02-12T13:49:22.777Z,8.13
2018-02-12T13:51:50.267Z,8.02
2018-02-12T13:54:17.753Z,7.97
2018-02-12T13:56:45.251Z,7.80
2018-02-12T13:59:12.739Z,7.59
2018-02-12T14:01:40.263Z,7.56
2018-02-12T14:04:07.746Z,7.84
2018-02-12T14:06:35.246Z,8.18
2018-02-12T14:09:02.734Z,8.34
2018-02-12T14:11:30.220Z,8.24
2018-02-12T14:13:57.724Z,8.35
2018-02-12T14:16:25.205Z,8.67
2018-02-12T14:18:52.702Z,8.80
2018-02-12T14:21:20.196Z,9.02
2018-02-12T14:23:47.679Z,9.15
2018-02-12T14:26:15.162Z,9.28
2018-02-12T14:28:42.651Z,9.32
2018-02-12T14:31:10.155Z,9.34
2018-02-12T14:33:37.650Z,9.15
2018-02-12T14:36:05.170Z,8.92
2018-02-12T14:38:32.666Z,8.71
2018-02-12T14:41:00.177Z,8.34
2018-02-12T14:43:27.688Z,8.23
2018-02-12T14:45:55.194Z,8.17
2018-02-12T14:48:22.684Z,8.07
2018-02-12T14:50:50.196Z,7.98
2018-02-12T14:53:17.707Z,7.87
2018-02-12T14:55:45.194Z,7.81
2018-02-12T14:58:12.696Z,7.72
2018-02-12T15:00:40.191Z,7.67
2018-02-12T15:03:07.683Z,7.53
2018-02-12T15:05:35.166Z,7.44
2018-02-12T15:08:02.663Z,7.27
2018-02-12T15:10:30.186Z,7.02
2018-02-12T15:12:57.667Z,6.93
2018-02-12T15:15:25.199Z,6.75
2018-02-12T15:17:52.689Z,6.63
2018-02-12T15:20:20.195Z,6.52
2018-02-12T15:22:47.671Z,6.18
2018-02-12T15:25:15.192Z,5.97
2018-02-12T15:27:42.691Z,6.25
2018-02-12T15:30:10.174Z,6.54
2018-02-12T15:32:37.667Z,6.74
2018-02-12T15:35:05.155Z,6.89
2018-02-12T15:37:33.789Z,7.03
2018-02-12T15:40:01.270Z,7.07
2018-02-12T15:42:28.823Z,7.12
2018-02-12T15:44:56.428Z,7.22
2018-02-12T15:47:24.035Z,7.37
2018-02-12T15:49:51.582Z,7.54
2018-02-12T15:52:19.073Z,7.69
2018-02-12T15:54:46.604Z,7.79
2018-02-12T15:57:14.301Z,7.81
2018-02-12T15:59:41.775Z,7.86
2018-02-12T16:02:09.282Z,7.94
2018-02-12T16:04:40.399Z,8.06
2018-02-12T16:07:07.901Z,8.18
2018-02-12T16:09:35.505Z,8.24
2018-02-12T16:12:02.994Z,8.21
2018-02-12T16:14:30.491Z,8.15
2018-02-12T16:16:57.994Z,8.11
2018-02-12T16:19:25.631Z,8.07
2018-02-12T16:21:53.135Z,8.09
2018-02-12T16:24:20.622Z,8.12
2018-02-12T16:26:48.110Z,8.14
2018-02-12T16:29:15.730Z,8.04
2018-02-12T16:31:43.236Z,7.99
2018-02-12T16:34:10.784Z,8.01
2018-02-12T16:36:38.264Z,7.97
2018-02-12T16:39:05.796Z,7.88
2018-02-12T16:41:33.358Z,7.78
2018-02-12T16:44:00.955Z,7.72
2018-02-12T16:46:28.434Z,7.63
2018-02-12T16:48:55.967Z,7.59
2018-02-12T16:51:23.451Z,7.50
2018-02-12T16:53:50.947Z,7.41
2018-02-12T16:56:18.478Z,7.32
2018-02-12T16:58:45.968Z,7.22
2018-02-12T17:01:14.311Z,7.11
2018-02-12T17:03:41.916Z,7.00
2018-02-12T17:06:09.386Z,6.92
2018-02-12T17:08:36.891Z,6.79
2018-02-12T17:11:04.403Z,6.68
2018-02-12T17:13:31.890Z,6.59
2018-02-12T17:15:59.394Z,6.53
2018-02-12T17:18:26.892Z,6.44
2018-02-12T17:20:54.425Z,6.35
2018-02-12T17:23:21.907Z,6.26
2018-02-12T17:25:49.395Z,6.20
2018-02-12T17:28:16.895Z,6.14
2018-02-12T17:30:44.448Z,6.06
2018-02-12T17:33:11.927Z,5.99
2018-02-12T17:35:39.418Z,5.93
2018-02-12T17:38:06.953Z,5.86
2018-02-12T17:40:34.438Z,5.79
2018-02-12T17:43:01.922Z,5.73
2018-02-12T17:45:29.402Z,5.66
2018-02-12T17:47:56.882Z,5.60
2018-02-12T17:50:24.355Z,5.54
2018-02-12T17:52:51.842Z,5.48
2018-02-12T17:55:19.348Z,5.42
2018-02-12T17:57:46.851Z,5.37
2018-02-12T18:00:14.346Z,5.33
2018-02-12T18:02:41.880Z,5.29
2018-02-12T18:05:09.355Z,5.25
2018-02-12T18:07:36.858Z,5.22
2018-02-12T18:10:04.356Z,5.18
2018-02-12T18:12:31.849Z,5.15
2018-02-12T18:14:59.327Z,5.12
2018-02-12T18:17:26.814Z,5.10
2018-02-12T18:19:54.291Z,5.08
2018-02-12T18:22:21.787Z,5.07
2018-02-12T18:24:49.272Z,5.06
2018-02-12T18:27:16.778Z,5.04
2018-02-12T18:29:44.266Z,5.03
2018-02-12T18:32:11.759Z,5.01
2018-02-12T18:34:39.337Z,5.00
2018-02-12T18:37:06.863Z,4.98
2018-02-12T18:39:34.407Z,4.96
2018-02-12T18:42:01.879Z,4.94
2018-02-12T18:44:29.393Z,4.92
2018-02-12T18:46:56.866Z,4.90
2018-02-12T18:49:24.356Z,4.86
2018-02-12T18:51:51.864Z,4.84
2018-02-12T18:54:19.342Z,4.80
2018-02-12T18:56:46.822Z,4.77
2018-02-12T18:59:14.318Z,4.75
2018-02-12T19:01:41.799Z,4.72
2018-02-12T19:04:09.294Z,4.70
2018-02-12T19:06:36.774Z,4.69
2018-02-12T19:09:04.270Z,4.67
2018-02-12T19:11:31.738Z,4.65
2018-02-12T19:13:59.212Z,4.64
2018-02-12T19:16:26.702Z,4.63
2018-02-12T19:18:54.190Z,4.62
2018-02-12T19:21:21.662Z,4.59
2018-02-12T19:23:49.140Z,4.57
2018-02-12T19:26:16.626Z,4.57
2018-02-12T19:28:44.113Z,4.56
2018-02-12T19:31:11.593Z,4.53
2018-02-12T19:33:39.087Z,4.52
2018-02-12T19:36:06.559Z,4.51
2018-02-12T19:38:34.039Z,4.50
2018-02-12T19:41:01.515Z,4.48
2018-02-12T19:43:29.003Z,4.46
2018-02-12T19:45:56.496Z,4.45
2018-02-12T19:48:24.023Z,4.44
2018-02-12T19:50:51.619Z,4.42
2018-02-12T19:53:19.115Z,4.39
2018-02-12T19:55:46.653Z,4.38
2018-02-12T19:58:14.131Z,4.36
2018-02-12T20:00:41.642Z,4.35
2018-02-12T20:03:09.211Z,4.33
2018-02-12T20:05:36.705Z,4.31
2018-02-12T20:08:04.231Z,4.30
2018-02-12T20:10:31.788Z,4.28
2018-02-12T20:12:59.341Z,4.25
2018-02-12T20:15:26.865Z,4.23
2018-02-12T20:17:54.354Z,4.21
2018-02-12T20:20:21.899Z,4.19
2018-02-12T20:22:49.410Z,4.18
2018-02-12T20:25:16.898Z,4.17
2018-02-12T20:27:44.399Z,4.16
2018-02-12T20:30:11.971Z,4.15
2018-02-12T20:32:39.490Z,4.16
2018-02-12T20:35:07.032Z,4.16
2018-02-12T20:37:34.542Z,4.16
2018-02-12T20:40:02.031Z,4.17
2018-02-12T20:42:29.552Z,4.17
2018-02-12T20:44:57.136Z,4.16
2018-02-12T20:47:24.652Z,4.16
2018-02-12T20:49:52.182Z,4.15
2018-02-12T20:52:19.718Z,4.16
2018-02-12T20:54:47.239Z,4.17
2018-02-12T20:57:14.786Z,4.16
2018-02-12T20:59:42.276Z,4.16
2018-02-12T21:02:09.763Z,4.17
2018-02-12T21:04:37.257Z,4.18
2018-02-12T21:07:04.773Z,4.18
2018-02-12T21:09:32.278Z,4.18
2018-02-12T21:11:59.816Z,4.18
2018-02-12T21:14:27.326Z,4.17
2018-02-12T21:16:54.830Z,4.19
2018-02-12T21:19:22.342Z,4.20
2018-02-12T21:21:49.830Z,4.20
2018-02-12T21:24:17.326Z,4.21
2018-02-12T21:26:44.840Z,4.20
2018-02-12T21:29:12.330Z,4.19
2018-02-12T21:31:39.819Z,4.16
2018-02-12T21:34:07.356Z,4.12
2018-02-12T21:36:34.889Z,4.09
2018-02-12T21:39:02.451Z,4.06
2018-02-12T21:41:29.915Z,4.02
2018-02-12T21:43:57.439Z,3.99
2018-02-12T21:46:24.933Z,3.97
2018-02-12T21:48:52.472Z,3.94
2018-02-12T21:51:19.966Z,3.92
2018-02-12T21:53:47.455Z,3.91
2018-02-12T21:56:14.962Z,3.90
2018-02-12T21:58:42.437Z,3.91
2018-02-12T22:01:10.017Z,3.94
2018-02-12T22:03:37.512Z,3.99
2018-02-12T22:06:04.994Z,4.05
2018-02-12T22:08:32.484Z,4.09
2018-02-12T22:10:59.983Z,4.12
2018-02-12T22:13:27.482Z,4.16
2018-02-12T22:15:54.962Z,4.18
2018-02-12T22:18:22.454Z,4.20
2018-02-12T22:20:49.954Z,4.21
2018-02-12T22:23:17.434Z,4.22
2018-02-12T22:25:44.928Z,4.22
2018-02-12T22:28:12.419Z,4.23
2018-02-12T22:30:39.902Z,4.25
2018-02-12T22:33:07.366Z,4.26
2018-02-12T22:35:34.864Z,4.27
2018-02-12T22:38:02.346Z,4.28
2018-02-12T22:40:29.842Z,4.29
2018-02-12T22:42:57.335Z,4.30
2018-02-12T22:45:24.818Z,4.31
2018-02-12T22:47:52.295Z,4.34
2018-02-12T22:50:19.794Z,4.36
2018-02-12T22:52:47.278Z,4.37
2018-02-12T22:55:14.771Z,4.38
2018-02-12T22:57:42.274Z,4.40
2018-02-12T23:00:09.746Z,4.41
2018-02-12T23:02:37.224Z,4.43
2018-02-12T23:05:04.715Z,4.45
2018-02-12T23:07:32.294Z,4.46
2018-02-12T23:09:59.787Z,4.47
2018-02-12T23:12:27.279Z,4.49
2018-02-12T23:14:54.765Z,4.51
2018-02-12T23:17:22.255Z,4.51
2018-02-12T23:19:49.754Z,4.50
2018-02-12T23:22:17.237Z,4.50
2018-02-12T23:24:44.766Z,4.49
2018-02-12T23:27:12.234Z,4.49
2018-02-12T23:29:39.718Z,4.49
2018-02-12T23:32:07.217Z,4.49
2018-02-12T23:34:35.638Z,4.52
2018-02-12T23:37:03.178Z,4.55
2018-02-12T23:39:30.690Z,4.58
2018-02-12T23:41:58.233Z,4.60
2018-02-12T23:44:25.742Z,4.63
2018-02-12T23:46:53.344Z,4.66
2018-02-12T23:49:20.827Z,4.70
2018-02-12T23:51:48.547Z,4.73
2018-02-12T23:54:24.866Z,4.76
2018-02-12T23:56:52.339Z,4.80
2018-02-12T23:59:20.193Z,4.88
